createdAt,value
2019-04-26T16:48:09.281Z,12.73
2019-04-26T16:49:13.531Z,12.73
2019-04-26T16:50:09.623Z,12.83
2019-04-26T16:51:09.793Z,12.76
2019-04-26T16:52:09.962Z,12.80
2019-04-26T16:53:36.346Z,12.79
2019-04-26T16:54:11.138Z,12.80
2019-04-26T16:56:10.650Z,12.86
2019-04-26T16:57:12.176Z,12.79
2019-04-26T16:58:12.641Z,12.82
2019-04-26T16:59:14.305Z,12.79
2019-04-26T17:00:15.789Z,12.85
2019-04-26T17:00:45.469Z,12.80
2019-04-26T17:01:12.403Z,12.78
2019-04-26T17:02:13.334Z,12.85
2019-04-26T17:03:11.869Z,12.86
2019-04-26T17:04:14.173Z,12.86
2019-04-26T17:05:23.748Z,12.83
2019-04-26T17:06:14.315Z,12.83
2019-04-26T17:07:13.400Z,12.78
2019-04-26T17:08:13.019Z,12.80
2019-04-26T17:09:14.432Z,12.79
2019-04-26T17:10:16.465Z,12.76
2019-04-26T17:11:14.042Z,12.80
2019-04-26T17:12:14.887Z,12.73
2019-04-26T17:13:13.569Z,12.86
2019-04-26T17:14:13.748Z,12.85
2019-04-26T17:15:17.514Z,12.86
2019-04-26T17:16:14.091Z,12.85
2019-04-26T17:17:14.369Z,12.80
2019-04-26T17:18:14.439Z,12.82
2019-04-26T17:19:14.610Z,12.78
2019-04-26T17:20:14.787Z,12.75
2019-04-26T17:21:17.592Z,12.76
2019-04-26T17:22:15.966Z,12.72
2019-04-26T17:23:15.296Z,12.85
2019-04-26T17:24:15.466Z,12.76
2019-04-26T17:25:17.020Z,12.68
2019-04-26T17:26:15.812Z,12.72
2019-04-26T17:27:15.982Z,12.68
2019-04-26T17:28:17.989Z,12.61
2019-04-26T17:29:16.327Z,12.67
2019-04-26T17:30:16.498Z,12.60
2019-04-26T17:31:16.670Z,12.72
2019-04-26T17:32:17.452Z,12.57
2019-04-26T17:33:17.012Z,12.60
2019-04-26T17:34:17.183Z,12.67
2019-04-26T17:35:17.355Z,12.70
2019-04-26T17:36:17.531Z,12.64
2019-04-26T17:37:21.653Z,12.67
2019-04-26T17:38:17.873Z,12.54
2019-04-26T17:39:18.494Z,12.55
2019-04-26T17:40:18.212Z,12.49
2019-04-26T17:41:18.384Z,12.50
2019-04-26T17:42:18.556Z,12.46
2019-04-26T17:43:18.729Z,12.47
2019-04-26T17:44:20.671Z,12.40
2019-04-26T17:45:19.073Z,12.46
2019-04-26T17:46:20.003Z,12.47
2019-04-26T17:47:20.268Z,12.55
2019-04-26T17:48:21.090Z,12.54
2019-04-26T17:49:21.371Z,12.57
2019-04-26T17:50:20.581Z,12.58
2019-04-26T17:51:22.885Z,12.54
2019-04-26T17:52:20.439Z,12.55
2019-04-26T17:53:28.833Z,12.46
2019-04-26T17:54:41.105Z,12.40
2019-04-26T17:55:20.839Z,12.42
2019-04-26T17:56:21.502Z,12.40
2019-04-26T17:57:33.648Z,12.46
2019-04-26T17:58:27.494Z,12.49
2019-04-26T17:59:33.554Z,12.45
2019-04-26T18:00:27.408Z,12.47
2019-04-26T18:01:42.180Z,12.46
2019-04-26T18:02:40.726Z,12.50
2019-04-26T18:03:22.191Z,12.55
2019-04-26T18:04:32.291Z,12.50
2019-04-26T18:05:24.435Z,12.45
2019-04-26T18:06:29.435Z,12.42
2019-04-26T18:07:40.321Z,12.42
2019-04-26T18:08:35.852Z,12.46
2019-04-26T18:09:39.076Z,12.39
2019-04-26T18:10:23.350Z,12.37
2019-04-26T18:11:25.017Z,12.35
2019-04-26T18:12:23.654Z,12.36
2019-04-26T18:13:23.826Z,12.31
2019-04-26T18:14:29.629Z,12.35
2019-04-26T18:15:24.207Z,12.35
2019-04-26T18:16:29.232Z,12.31
2019-04-26T18:17:24.956Z,12.31
2019-04-26T18:18:24.687Z,12.37
2019-04-26T18:19:30.423Z,12.36
2019-04-26T18:20:25.021Z,12.37
2019-04-26T18:21:25.188Z,12.40
2019-04-26T18:22:28.397Z,12.42
2019-04-26T18:23:25.531Z,12.42
2019-04-26T18:24:27.682Z,12.39
2019-04-26T18:25:25.886Z,12.42
2019-04-26T18:26:26.045Z,12.47
2019-04-26T18:27:29.880Z,12.49
2019-04-26T18:28:26.392Z,12.55
2019-04-26T18:29:29.413Z,12.53
2019-04-26T18:30:26.737Z,12.45
2019-04-26T18:31:28.624Z,12.45
2019-04-26T18:32:27.083Z,12.40
2019-04-26T18:33:27.257Z,12.46
2019-04-26T18:34:30.544Z,12.37
2019-04-26T18:35:27.586Z,12.43
2019-04-26T18:36:31.862Z,12.42
2019-04-26T18:37:27.927Z,12.43
2019-04-26T18:38:28.093Z,12.42
2019-04-26T18:39:29.709Z,12.35
2019-04-26T18:40:28.436Z,12.37
2019-04-26T18:41:29.045Z,12.39
2019-04-26T18:42:28.779Z,12.43
2019-04-26T18:43:28.952Z,12.27
2019-04-26T18:44:36.910Z,12.21
2019-04-26T18:45:30.174Z,12.28
2019-04-26T18:46:31.771Z,12.28
2019-04-26T18:47:29.637Z,12.27
2019-04-26T18:48:35.282Z,12.24
2019-04-26T18:49:29.979Z,12.27
2019-04-26T18:50:32.839Z,12.21
2019-04-26T18:51:30.326Z,12.20
2019-04-26T18:52:30.506Z,12.18
2019-04-26T18:53:34.498Z,12.17
2019-04-26T18:54:30.836Z,12.22
2019-04-26T18:55:31.012Z,12.27
2019-04-26T18:56:33.714Z,12.13
2019-04-26T18:57:31.356Z,12.24
2019-04-26T18:58:34.729Z,12.28
2019-04-26T18:59:31.704Z,12.28
2019-04-26T19:00:33.599Z,12.32
2019-04-26T19:01:34.670Z,12.31
2019-04-26T19:02:33.330Z,12.43
2019-04-26T19:03:33.777Z,12.46
2019-04-26T19:04:33.574Z,12.36
2019-04-26T19:05:33.809Z,12.43
2019-04-26T19:06:37.681Z,12.39
2019-04-26T19:07:33.077Z,12.37
2019-04-26T19:08:45.010Z,12.37
2019-04-26T19:09:55.919Z,12.36
2019-04-26T19:10:34.357Z,12.27
2019-04-26T19:11:35.646Z,12.35
2019-04-26T19:12:33.953Z,12.22
2019-04-26T19:13:36.580Z,12.22
2019-04-26T19:14:34.267Z,12.24
2019-04-26T19:15:40.370Z,12.25
2019-04-26T19:16:34.618Z,12.24
2019-04-26T19:17:34.786Z,12.24
2019-04-26T19:18:37.912Z,12.25
2019-04-26T19:19:35.130Z,12.29
2019-04-26T19:20:35.294Z,12.24
2019-04-26T19:21:39.002Z,12.24
2019-04-26T19:22:35.638Z,12.24
2019-04-26T19:23:35.810Z,12.20
2019-04-26T19:24:38.576Z,12.27
2019-04-26T19:25:40.926Z,12.18
2019-04-26T19:26:36.317Z,12.21
2019-04-26T19:27:47.281Z,12.20
2019-04-26T19:28:39.932Z,12.13
2019-04-26T19:29:36.825Z,12.10
2019-04-26T19:30:39.872Z,12.10
2019-04-26T19:31:37.169Z,12.07
2019-04-26T19:32:39.655Z,12.10
2019-04-26T19:33:37.511Z,12.12
2019-04-26T19:34:37.686Z,12.06
2019-04-26T19:35:39.385Z,12.10
2019-04-26T19:36:38.024Z,11.99
2019-04-26T19:37:38.207Z,11.90
2019-04-26T19:38:38.369Z,12.06
2019-04-26T19:39:38.563Z,12.04
2019-04-26T19:40:39.399Z,12.00
2019-04-26T19:41:38.894Z,12.04
2019-04-26T19:42:39.064Z,12.09
2019-04-26T19:43:42.963Z,11.99
2019-04-26T19:44:39.409Z,12.10
2019-04-26T19:45:45.577Z,12.07
2019-04-26T19:46:42.139Z,12.07
2019-04-26T19:47:42.284Z,12.06
2019-04-26T19:48:41.793Z,12.07
2019-04-26T19:49:40.268Z,12.03
2019-04-26T19:50:48.510Z,12.06
2019-04-26T19:51:41.472Z,12.10
2019-04-26T19:52:42.893Z,12.07
2019-04-26T19:53:42.351Z,12.06
2019-04-26T19:54:41.787Z,12.03
2019-04-26T19:55:46.940Z,11.94
2019-04-26T19:56:41.840Z,12.04
2019-04-26T19:57:42.616Z,12.06
2019-04-26T19:58:42.202Z,11.99
2019-04-26T19:59:42.325Z,11.84
2019-04-26T20:00:43.478Z,11.87
2019-04-26T20:01:43.731Z,11.90
2019-04-26T20:02:42.495Z,11.80
2019-04-26T20:03:43.178Z,11.88
2019-04-26T20:04:42.848Z,11.83
2019-04-26T20:05:44.162Z,11.83
2019-04-26T20:06:43.192Z,11.84
2019-04-26T20:07:43.362Z,11.87
2019-04-26T20:08:45.942Z,11.94
2019-04-26T20:09:43.715Z,11.90
2019-04-26T20:10:45.887Z,11.87
2019-04-26T20:11:46.914Z,11.94
2019-04-26T20:12:44.229Z,11.99
2019-04-26T20:13:46.955Z,11.90
2019-04-26T20:14:49.230Z,11.97
2019-04-26T20:15:44.742Z,11.91
2019-04-26T20:16:44.914Z,11.87
2019-04-26T20:17:45.131Z,11.81
2019-04-26T20:18:45.258Z,11.83
2019-04-26T20:19:47.749Z,11.80
2019-04-26T20:20:45.601Z,11.83
2019-04-26T20:21:49.622Z,11.77
2019-04-26T20:22:45.947Z,11.78
2019-04-26T20:23:47.542Z,11.77
2019-04-26T20:24:48.733Z,11.83
2019-04-26T20:25:46.458Z,11.77
2019-04-26T20:26:48.641Z,11.75
2019-04-26T20:27:46.791Z,11.69
2019-04-26T20:28:46.960Z,11.70
2019-04-26T20:29:47.861Z,11.78
2019-04-26T20:30:47.300Z,11.73
2019-04-26T20:31:47.857Z,11.69
2019-04-26T20:32:47.643Z,11.68
2019-04-26T20:33:47.928Z,11.66
2019-04-26T20:34:49.373Z,11.59
2019-04-26T20:35:48.133Z,11.60
2019-04-26T20:36:48.314Z,11.66
2019-04-26T20:37:48.490Z,11.50
2019-04-26T20:38:48.664Z,11.55
2019-04-26T20:39:55.832Z,11.55
2019-04-26T20:40:49.085Z,11.55
2019-04-26T20:42:00.543Z,11.57
2019-04-26T20:42:49.301Z,11.54
2019-04-26T20:44:04.468Z,11.48
2019-04-26T20:44:51.920Z,11.50
2019-04-26T20:46:10.107Z,11.60
2019-04-26T20:46:51.843Z,11.55
2019-04-26T20:47:51.968Z,11.59
2019-04-26T20:48:51.899Z,11.55
2019-04-26T20:50:00.628Z,11.57
2019-04-26T20:50:52.043Z,11.55
2019-04-26T20:51:51.871Z,11.60
2019-04-26T20:52:55.588Z,11.54
2019-04-26T20:53:51.199Z,11.54
2019-04-26T20:54:54.019Z,11.55
2019-04-26T20:55:52.783Z,11.60
2019-04-26T20:56:55.389Z,11.52
2019-04-26T20:57:52.000Z,11.54
2019-04-26T20:58:52.389Z,11.57
2019-04-26T20:59:59.869Z,11.57
